sensor_id;sensor_type;location;lat;lon;timestamp;temperature;humidity
13436;DHT22;6790;49.520;8.504;2023-07-29T00:00:42;19.40;99.90
13436;DHT22;6790;49.520;8.504;2023-07-29T00:03:09;18.70;99.90
13436;DHT22;6790;49.520;8.504;2023-07-29T00:05:36;19.20;99.90
13436;DHT22;6790;49.520;8.504;2023-07-29T00:08:02;18.40;99.90
13436;DHT22;6790;49.520;8.504;2023-07-29T00:10:28;18.30;99.90
13436;DHT22;6790;49.520;8.504;2023-07-29T00:12:54;18.60;99.90
13436;DHT22;6790;49.520;8.504;2023-07-29T00:15:19;18.60;99.90
13436;DHT22;6790;49.520;8.504;2023-07-29T00:17:45;19.10;99.90
13436;DHT22;6790;49.520;8.504;2023-07-29T00:20:11;19.50;99.90
13436;DHT22;6790;49.520;8.504;2023-07-29T00:22:36;19.40;99.90
13436;DHT22;6790;49.520;8.504;2023-07-29T00:25:02;19.30;99.90
13436;DHT22;6790;49.520;8.504;2023-07-29T00:27:28;18.40;99.90
13436;DHT22;6790;49.520;8.504;2023-07-29T00:29:54;18.50;99.90
13436;DHT22;6790;49.520;8.504;2023-07-29T00:32:19;18.80;99.90
13436;DHT22;6790;49.520;8.504;2023-07-29T00:34:45;18.40;99.90
13436;DHT22;6790;49.520;8.504;2023-07-29T00:37:11;19.30;99.90
13436;DHT22;6790;49.520;8.504;2023-07-29T00:39:37;19.40;99.90
13436;DHT22;6790;49.520;8.504;2023-07-29T00:42:04;18.40;99.90
13436;DHT22;6790;49.520;8.504;2023-07-29T00:44:30;18.60;99.90
13436;DHT22;6790;49.520;8.504;2023-07-29T00:46:57;18.50;99.90
13436;DHT22;6790;49.520;8.504;2023-07-29T00:49:23;18.60;99.90
13436;DHT22;6790;49.520;8.504;2023-07-29T00:51:49;18.40;99.90
13436;DHT22;6790;49.520;8.504;2023-07-29T00:54:15;18.50;99.90
13436;DHT22;6790;49.520;8.504;2023-07-29T00:56:40;18.20;99.90
13436;DHT22;6790;49.520;8.504;2023-07-29T00:59:07;19.20;99.90
13436;DHT22;6790;49.520;8.504;2023-07-29T01:01:33;18.40;99.90
13436;DHT22;6790;49.520;8.504;2023-07-29T01:03:59;18.80;99.90
13436;DHT22;6790;49.520;8.504;2023-07-29T01:06:35;18.80;99.90
13436;DHT22;6790;49.520;8.504;2023-07-29T01:09:09;18.40;99.90
13436;DHT22;6790;49.520;8.504;2023-07-29T01:12:16;19.10;99.90
13436;DHT22;6790;49.520;8.504;2023-07-29T01:15:01;18.50;99.90
13436;DHT22;6790;49.520;8.504;2023-07-29T01:17:46;19.10;99.90
13436;DHT22;6790;49.520;8.504;2023-07-29T01:20:17;18.40;99.90
13436;DHT22;6790;49.520;8.504;2023-07-29T01:22:45;19.10;99.90
13436;DHT22;6790;49.520;8.504;2023-07-29T01:25:12;18.40;99.90
13436;DHT22;6790;49.520;8.504;2023-07-29T01:27:39;19.00;99.90
13436;DHT22;6790;49.520;8.504;2023-07-29T01:30:06;18.60;99.90
13436;DHT22;6790;49.520;8.504;2023-07-29T01:32:54;18.90;99.90
13436;DHT22;6790;49.520;8.504;2023-07-29T01:35:29;18.40;99.90
13436;DHT22;6790;49.520;8.504;2023-07-29T01:38:18;18.30;99.90
13436;DHT22;6790;49.520;8.504;2023-07-29T01:40:46;18.40;99.90
13436;DHT22;6790;49.520;8.504;2023-07-29T01:43:13;18.40;99.90
13436;DHT22;6790;49.520;8.504;2023-07-29T01:45:40;19.10;99.90
13436;DHT22;6790;49.520;8.504;2023-07-29T01:48:06;18.40;99.90
13436;DHT22;6790;49.520;8.504;2023-07-29T01:50:33;18.30;99.90
13436;DHT22;6790;49.520;8.504;2023-07-29T01:52:59;18.30;99.90
13436;DHT22;6790;49.520;8.504;2023-07-29T01:55:25;18.90;99.90
13436;DHT22;6790;49.520;8.504;2023-07-29T01:57:51;19.00;99.90
13436;DHT22;6790;49.520;8.504;2023-07-29T02:00:18;19.00;99.90
13436;DHT22;6790;49.520;8.504;2023-07-29T02:02:44;18.30;99.90
13436;DHT22;6790;49.520;8.504;2023-07-29T02:05:10;18.90;99.90
13436;DHT22;6790;49.520;8.504;2023-07-29T02:07:35;18.70;99.90
13436;DHT22;6790;49.520;8.504;2023-07-29T02:10:01;18.90;99.90
13436;DHT22;6790;49.520;8.504;2023-07-29T02:12:27;18.20;99.90
13436;DHT22;6790;49.520;8.504;2023-07-29T02:14:52;18.90;99.90
13436;DHT22;6790;49.520;8.504;2023-07-29T02:17:18;18.40;99.90
13436;DHT22;6790;49.520;8.504;2023-07-29T02:19:44;18.80;99.90
13436;DHT22;6790;49.520;8.504;2023-07-29T02:22:13;18.70;99.90
13436;DHT22;6790;49.520;8.504;2023-07-29T02:24:39;18.40;99.90
13436;DHT22;6790;49.520;8.504;2023-07-29T02:27:05;18.50;99.90
13436;DHT22;6790;49.520;8.504;2023-07-29T02:29:30;18.80;99.90
13436;DHT22;6790;49.520;8.504;2023-07-29T02:31:58;18.70;99.90
13436;DHT22;6790;49.520;8.504;2023-07-29T02:34:24;18.60;99.90
13436;DHT22;6790;49.520;8.504;2023-07-29T02:36:50;18.70;99.90
13436;DHT22;6790;49.520;8.504;2023-07-29T02:39:16;18.70;99.90
13436;DHT22;6790;49.520;8.504;2023-07-29T02:41:42;18.70;99.90
13436;DHT22;6790;49.520;8.504;2023-07-29T02:44:07;18.30;99.90
13436;DHT22;6790;49.520;8.504;2023-07-29T02:46:33;18.20;99.90
13436;DHT22;6790;49.520;8.504;2023-07-29T02:48:59;18.70;99.90
13436;DHT22;6790;49.520;8.504;2023-07-29T02:51:25;18.70;99.90
13436;DHT22;6790;49.520;8.504;2023-07-29T02:53:50;18.10;99.90
13436;DHT22;6790;49.520;8.504;2023-07-29T02:56:16;18.40;99.90
13436;DHT22;6790;49.520;8.504;2023-07-29T02:58:42;18.60;99.90
13436;DHT22;6790;49.520;8.504;2023-07-29T03:01:07;18.20;99.90
13436;DHT22;6790;49.520;8.504;2023-07-29T03:03:33;18.10;99.90
13436;DHT22;6790;49.520;8.504;2023-07-29T03:06:05;18.60;99.90
13436;DHT22;6790;49.520;8.504;2023-07-29T03:08:36;18.80;99.90
13436;DHT22;6790;49.520;8.504;2023-07-29T03:11:10;18.40;99.90
13436;DHT22;6790;49.520;8.504;2023-07-29T03:13:38;18.40;99.90
13436;DHT22;6790;49.520;8.504;2023-07-29T03:16:08;18.60;99.90
13436;DHT22;6790;49.520;8.504;2023-07-29T03:18:35;18.80;99.90
13436;DHT22;6790;49.520;8.504;2023-07-29T03:21:02;18.10;99.90
13436;DHT22;6790;49.520;8.504;2023-07-29T03:23:29;18.50;99.90
13436;DHT22;6790;49.520;8.504;2023-07-29T03:25:56;18.70;99.90
13436;DHT22;6790;49.520;8.504;2023-07-29T03:28:28;18.50;99.90
13436;DHT22;6790;49.520;8.504;2023-07-29T03:30:58;18.70;99.90
13436;DHT22;6790;49.520;8.504;2023-07-29T03:33:25;18.20;99.90
13436;DHT22;6790;49.520;8.504;2023-07-29T03:35:52;18.70;99.90
13436;DHT22;6790;49.520;8.504;2023-07-29T03:38:18;18.50;99.90
13436;DHT22;6790;49.520;8.504;2023-07-29T03:40:44;18.80;99.90
13436;DHT22;6790;49.520;8.504;2023-07-29T03:43:10;18.30;99.90
13436;DHT22;6790;49.520;8.504;2023-07-29T03:45:36;18.80;99.90
13436;DHT22;6790;49.520;8.504;2023-07-29T03:48:03;18.80;99.90
13436;DHT22;6790;49.520;8.504;2023-07-29T03:50:30;18.40;99.90
13436;DHT22;6790;49.520;8.504;2023-07-29T03:52:56;18.10;99.90
13436;DHT22;6790;49.520;8.504;2023-07-29T03:55:23;18.80;99.90
13436;DHT22;6790;49.520;8.504;2023-07-29T03:57:48;18.50;99.90
13436;DHT22;6790;49.520;8.504;2023-07-29T04:00:14;18.30;99.90
13436;DHT22;6790;49.520;8.504;2023-07-29T04:02:41;18.70;99.90
13436;DHT22;6790;49.520;8.504;2023-07-29T04:05:07;18.30;99.90
13436;DHT22;6790;49.520;8.504;2023-07-29T04:07:37;18.40;99.90
13436;DHT22;6790;49.520;8.504;2023-07-29T04:10:03;18.70;99.90
13436;DHT22;6790;49.520;8.504;2023-07-29T04:12:30;18.20;99.90
13436;DHT22;6790;49.520;8.504;2023-07-29T04:14:55;18.50;99.90
13436;DHT22;6790;49.520;8.504;2023-07-29T04:17:21;18.40;99.90
13436;DHT22;6790;49.520;8.504;2023-07-29T04:19:47;18.50;99.90
13436;DHT22;6790;49.520;8.504;2023-07-29T04:22:12;18.20;99.90
13436;DHT22;6790;49.520;8.504;2023-07-29T04:24:39;18.20;99.90
13436;DHT22;6790;49.520;8.504;2023-07-29T04:27:05;18.30;99.90
13436;DHT22;6790;49.520;8.504;2023-07-29T04:29:31;18.20;99.90
13436;DHT22;6790;49.520;8.504;2023-07-29T04:31:56;18.40;99.90
13436;DHT22;6790;49.520;8.504;2023-07-29T04:34:22;18.20;99.90
13436;DHT22;6790;49.520;8.504;2023-07-29T04:36:48;18.30;99.90
13436;DHT22;6790;49.520;8.504;2023-07-29T04:39:14;18.80;99.90
13436;DHT22;6790;49.520;8.504;2023-07-29T04:41:40;18.90;99.90
13436;DHT22;6790;49.520;8.504;2023-07-29T04:44:06;18.20;99.90
13436;DHT22;6790;49.520;8.504;2023-07-29T04:46:32;18.20;99.90
13436;DHT22;6790;49.520;8.504;2023-07-29T04:48:58;18.40;99.90
13436;DHT22;6790;49.520;8.504;2023-07-29T04:51:24;18.80;99.90
13436;DHT22;6790;49.520;8.504;2023-07-29T04:53:50;18.80;99.90
13436;DHT22;6790;49.520;8.504;2023-07-29T04:56:16;18.50;99.90
13436;DHT22;6790;49.520;8.504;2023-07-29T04:58:41;18.60;99.90
13436;DHT22;6790;49.520;8.504;2023-07-29T05:01:07;18.90;99.90
13436;DHT22;6790;49.520;8.504;2023-07-29T05:03:33;18.90;99.90
13436;DHT22;6790;49.520;8.504;2023-07-29T05:05:59;18.40;99.90
13436;DHT22;6790;49.520;8.504;2023-07-29T05:08:26;18.40;99.90
13436;DHT22;6790;49.520;8.504;2023-07-29T05:10:52;19.00;99.90
13436;DHT22;6790;49.520;8.504;2023-07-29T05:13:20;18.50;99.90
13436;DHT22;6790;49.520;8.504;2023-07-29T05:15:47;19.00;99.90
13436;DHT22;6790;49.520;8.504;2023-07-29T05:18:14;19.10;99.90
13436;DHT22;6790;49.520;8.504;2023-07-29T05:20:40;19.00;99.90
13436;DHT22;6790;49.520;8.504;2023-07-29T05:23:06;19.20;99.90
13436;DHT22;6790;49.520;8.504;2023-07-29T05:25:32;18.50;99.90
13436;DHT22;6790;49.520;8.504;2023-07-29T05:28:03;18.50;99.90
13436;DHT22;6790;49.520;8.504;2023-07-29T05:30:30;18.70;99.90
13436;DHT22;6790;49.520;8.504;2023-07-29T05:33:05;19.30;99.90
13436;DHT22;6790;49.520;8.504;2023-07-29T05:35:33;19.40;99.90
13436;DHT22;6790;49.520;8.504;2023-07-29T05:37:58;18.80;99.90
13436;DHT22;6790;49.520;8.504;2023-07-29T05:40:24;18.90;99.90
13436;DHT22;6790;49.520;8.504;2023-07-29T05:42:49;19.50;99.90
13436;DHT22;6790;49.520;8.504;2023-07-29T05:45:15;19.50;99.90
13436;DHT22;6790;49.520;8.504;2023-07-29T05:47:41;19.10;99.90
13436;DHT22;6790;49.520;8.504;2023-07-29T05:50:07;18.90;99.90
13436;DHT22;6790;49.520;8.504;2023-07-29T05:52:33;18.90;99.90
13436;DHT22;6790;49.520;8.504;2023-07-29T05:54:59;18.90;99.90
13436;DHT22;6790;49.520;8.504;2023-07-29T05:57:25;19.30;99.90
13436;DHT22;6790;49.520;8.504;2023-07-29T05:59:51;19.10;99.90
13436;DHT22;6790;49.520;8.504;2023-07-29T06:02:16;19.00;99.90
13436;DHT22;6790;49.520;8.504;2023-07-29T06:04:43;19.30;99.90
13436;DHT22;6790;49.520;8.504;2023-07-29T06:07:09;19.10;99.90
13436;DHT22;6790;49.520;8.504;2023-07-29T06:09:34;19.40;99.90
13436;DHT22;6790;49.520;8.504;2023-07-29T06:12:00;19.20;99.90
13436;DHT22;6790;49.520;8.504;2023-07-29T06:14:26;20.00;99.90
13436;DHT22;6790;49.520;8.504;2023-07-29T06:16:52;20.00;99.90
13436;DHT22;6790;49.520;8.504;2023-07-29T06:19:19;19.30;99.90
13436;DHT22;6790;49.520;8.504;2023-07-29T06:21:45;20.00;99.90
13436;DHT22;6790;49.520;8.504;2023-07-29T06:24:11;20.20;99.90
13436;DHT22;6790;49.520;8.504;2023-07-29T06:26:37;19.90;99.90
13436;DHT22;6790;49.520;8.504;2023-07-29T06:29:02;19.40;99.90
13436;DHT22;6790;49.520;8.504;2023-07-29T06:31:28;19.70;99.90
13436;DHT22;6790;49.520;8.504;2023-07-29T06:33:55;20.10;99.90
13436;DHT22;6790;49.520;8.504;2023-07-29T06:36:20;20.30;99.90
13436;DHT22;6790;49.520;8.504;2023-07-29T06:38:46;20.40;99.90
13436;DHT22;6790;49.520;8.504;2023-07-29T06:41:12;20.20;99.90
13436;DHT22;6790;49.520;8.504;2023-07-29T06:43:37;20.00;99.90
13436;DHT22;6790;49.520;8.504;2023-07-29T06:46:03;19.90;99.90
13436;DHT22;6790;49.520;8.504;2023-07-29T06:48:29;20.10;99.90
13436;DHT22;6790;49.520;8.504;2023-07-29T06:50:54;20.50;99.90
13436;DHT22;6790;49.520;8.504;2023-07-29T06:53:21;20.60;99.90
13436;DHT22;6790;49.520;8.504;2023-07-29T06:55:46;20.60;99.90
13436;DHT22;6790;49.520;8.504;2023-07-29T06:58:12;20.50;99.90
13436;DHT22;6790;49.520;8.504;2023-07-29T07:00:38;20.70;99.90
13436;DHT22;6790;49.520;8.504;2023-07-29T07:03:04;20.90;99.90
13436;DHT22;6790;49.520;8.504;2023-07-29T07:05:29;21.10;99.90
13436;DHT22;6790;49.520;8.504;2023-07-29T07:07:55;21.20;99.90
13436;DHT22;6790;49.520;8.504;2023-07-29T07:10:21;21.40;99.90
13436;DHT22;6790;49.520;8.504;2023-07-29T07:12:47;21.50;99.90
13436;DHT22;6790;49.520;8.504;2023-07-29T07:15:13;21.50;99.90
13436;DHT22;6790;49.520;8.504;2023-07-29T07:17:38;21.70;99.90
13436;DHT22;6790;49.520;8.504;2023-07-29T07:20:05;21.90;99.90
13436;DHT22;6790;49.520;8.504;2023-07-29T07:22:31;21.80;99.90
13436;DHT22;6790;49.520;8.504;2023-07-29T07:24:56;21.70;99.90
13436;DHT22;6790;49.520;8.504;2023-07-29T07:27:22;21.60;99.90
13436;DHT22;6790;49.520;8.504;2023-07-29T07:29:48;21.40;99.90
13436;DHT22;6790;49.520;8.504;2023-07-29T07:32:14;21.40;99.90
13436;DHT22;6790;49.520;8.504;2023-07-29T07:34:39;21.30;99.90
13436;DHT22;6790;49.520;8.504;2023-07-29T07:37:05;21.10;99.90
13436;DHT22;6790;49.520;8.504;2023-07-29T07:39:32;21.00;99.90
13436;DHT22;6790;49.520;8.504;2023-07-29T07:41:57;21.00;99.90
13436;DHT22;6790;49.520;8.504;2023-07-29T07:44:23;21.10;99.90
13436;DHT22;6790;49.520;8.504;2023-07-29T07:46:52;21.20;99.90
13436;DHT22;6790;49.520;8.504;2023-07-29T07:49:17;21.30;99.90
13436;DHT22;6790;49.520;8.504;2023-07-29T07:51:44;21.20;99.90
13436;DHT22;6790;49.520;8.504;2023-07-29T07:54:09;21.40;99.90
13436;DHT22;6790;49.520;8.504;2023-07-29T07:56:35;21.40;99.90
13436;DHT22;6790;49.520;8.504;2023-07-29T07:59:01;21.60;99.90
13436;DHT22;6790;49.520;8.504;2023-07-29T08:01:26;21.60;99.90
13436;DHT22;6790;49.520;8.504;2023-07-29T08:03:52;21.50;99.90
13436;DHT22;6790;49.520;8.504;2023-07-29T08:06:18;21.20;99.90
13436;DHT22;6790;49.520;8.504;2023-07-29T08:08:43;21.30;99.90
13436;DHT22;6790;49.520;8.504;2023-07-29T08:11:09;21.10;99.90
13436;DHT22;6790;49.520;8.504;2023-07-29T08:13:35;21.10;99.90
13436;DHT22;6790;49.520;8.504;2023-07-29T08:16:00;21.30;99.90
13436;DHT22;6790;49.520;8.504;2023-07-29T08:18:26;21.20;99.90
13436;DHT22;6790;49.520;8.504;2023-07-29T08:20:56;21.00;99.90
13436;DHT22;6790;49.520;8.504;2023-07-29T08:23:24;21.30;99.90
13436;DHT22;6790;49.520;8.504;2023-07-29T08:25:54;21.10;99.90
13436;DHT22;6790;49.520;8.504;2023-07-29T08:28:22;20.90;99.90
13436;DHT22;6790;49.520;8.504;2023-07-29T08:30:48;20.80;99.90
13436;DHT22;6790;49.520;8.504;2023-07-29T08:33:15;20.70;99.90
13436;DHT22;6790;49.520;8.504;2023-07-29T08:35:41;20.90;99.90
13436;DHT22;6790;49.520;8.504;2023-07-29T08:38:06;21.00;99.90
13436;DHT22;6790;49.520;8.504;2023-07-29T08:40:34;20.90;99.90
13436;DHT22;6790;49.520;8.504;2023-07-29T08:43:04;20.90;99.90
13436;DHT22;6790;49.520;8.504;2023-07-29T08:45:35;21.00;99.90
13436;DHT22;6790;49.520;8.504;2023-07-29T08:48:08;21.40;99.90
13436;DHT22;6790;49.520;8.504;2023-07-29T08:50:36;21.50;99.90
13436;DHT22;6790;49.520;8.504;2023-07-29T08:53:04;21.80;99.90
13436;DHT22;6790;49.520;8.504;2023-07-29T08:55:33;21.80;99.90
13436;DHT22;6790;49.520;8.504;2023-07-29T08:57:59;21.60;99.90
13436;DHT22;6790;49.520;8.504;2023-07-29T09:00:27;21.70;99.90
13436;DHT22;6790;49.520;8.504;2023-07-29T09:02:53;21.90;99.90
13436;DHT22;6790;49.520;8.504;2023-07-29T09:05:21;22.00;99.90
13436;DHT22;6790;49.520;8.504;2023-07-29T09:07:48;22.10;99.90
13436;DHT22;6790;49.520;8.504;2023-07-29T09:10:15;22.10;99.90
13436;DHT22;6790;49.520;8.504;2023-07-29T09:12:41;22.00;99.90
13436;DHT22;6790;49.520;8.504;2023-07-29T09:15:07;21.80;99.90
13436;DHT22;6790;49.520;8.504;2023-07-29T09:17:34;21.70;99.90
13436;DHT22;6790;49.520;8.504;2023-07-29T09:19:59;21.70;99.90
13436;DHT22;6790;49.520;8.504;2023-07-29T09:22:26;21.90;99.90
13436;DHT22;6790;49.520;8.504;2023-07-29T09:24:53;22.00;99.90
13436;DHT22;6790;49.520;8.504;2023-07-29T09:27:28;22.10;99.90
13436;DHT22;6790;49.520;8.504;2023-07-29T09:29:57;22.10;99.90
13436;DHT22;6790;49.520;8.504;2023-07-29T09:32:24;22.60;99.90
13436;DHT22;6790;49.520;8.504;2023-07-29T09:34:51;23.00;99.90
13436;DHT22;6790;49.520;8.504;2023-07-29T09:37:18;23.40;99.90
13436;DHT22;6790;49.520;8.504;2023-07-29T09:39:47;23.40;99.90
13436;DHT22;6790;49.520;8.504;2023-07-29T09:42:18;23.80;99.90
13436;DHT22;6790;49.520;8.504;2023-07-29T09:44:45;24.10;99.90
13436;DHT22;6790;49.520;8.504;2023-07-29T09:47:19;24.10;99.90
13436;DHT22;6790;49.520;8.504;2023-07-29T09:49:46;24.10;99.90
13436;DHT22;6790;49.520;8.504;2023-07-29T09:52:15;24.00;99.90
13436;DHT22;6790;49.520;8.504;2023-07-29T09:54:46;23.90;99.90
13436;DHT22;6790;49.520;8.504;2023-07-29T09:57:17;23.60;99.90
13436;DHT22;6790;49.520;8.504;2023-07-29T09:59:56;23.50;99.90
13436;DHT22;6790;49.520;8.504;2023-07-29T10:02:22;23.40;99.90
13436;DHT22;6790;49.520;8.504;2023-07-29T10:04:51;23.40;99.90
13436;DHT22;6790;49.520;8.504;2023-07-29T10:07:18;23.30;99.90
13436;DHT22;6790;49.520;8.504;2023-07-29T10:09:45;23.40;99.90
13436;DHT22;6790;49.520;8.504;2023-07-29T10:12:11;23.50;99.90
13436;DHT22;6790;49.520;8.504;2023-07-29T10:14:38;23.50;99.90
13436;DHT22;6790;49.520;8.504;2023-07-29T10:17:05;23.40;99.90
13436;DHT22;6790;49.520;8.504;2023-07-29T10:19:31;23.40;99.90
13436;DHT22;6790;49.520;8.504;2023-07-29T10:21:59;23.60;99.90
13436;DHT22;6790;49.520;8.504;2023-07-29T10:24:30;23.60;99.90
13436;DHT22;6790;49.520;8.504;2023-07-29T10:27:00;23.40;99.90
13436;DHT22;6790;49.520;8.504;2023-07-29T10:29:38;23.10;99.90
13436;DHT22;6790;49.520;8.504;2023-07-29T10:32:05;22.90;99.90
13436;DHT22;6790;49.520;8.504;2023-07-29T10:34:32;23.00;99.90
13436;DHT22;6790;49.520;8.504;2023-07-29T10:36:59;23.20;99.90
13436;DHT22;6790;49.520;8.504;2023-07-29T10:39:26;23.50;99.90
13436;DHT22;6790;49.520;8.504;2023-07-29T10:42:00;23.50;99.90
13436;DHT22;6790;49.520;8.504;2023-07-29T10:47:16;23.60;99.90
13436;DHT22;6790;49.520;8.504;2023-07-29T10:49:44;23.40;99.90
13436;DHT22;6790;49.520;8.504;2023-07-29T10:55:03;23.70;99.90
13436;DHT22;6790;49.520;8.504;2023-07-29T10:57:33;24.00;99.90
13436;DHT22;6790;49.520;8.504;2023-07-29T11:00:00;24.40;99.90
13436;DHT22;6790;49.520;8.504;2023-07-29T11:02:36;24.50;99.90
13436;DHT22;6790;49.520;8.504;2023-07-29T11:05:15;24.40;99.90
13436;DHT22;6790;49.520;8.504;2023-07-29T11:07:47;24.10;99.90
13436;DHT22;6790;49.520;8.504;2023-07-29T11:10:13;23.80;99.90
13436;DHT22;6790;49.520;8.504;2023-07-29T11:12:46;23.50;99.90
13436;DHT22;6790;49.520;8.504;2023-07-29T11:15:14;23.20;99.90
13436;DHT22;6790;49.520;8.504;2023-07-29T11:17:56;22.80;99.90
13436;DHT22;6790;49.520;8.504;2023-07-29T11:20:28;22.50;99.90
13436;DHT22;6790;49.520;8.504;2023-07-29T11:22:56;22.40;99.90
13436;DHT22;6790;49.520;8.504;2023-07-29T11:25:24;22.70;99.90
13436;DHT22;6790;49.520;8.504;2023-07-29T11:27:59;23.00;99.90
13436;DHT22;6790;49.520;8.504;2023-07-29T11:30:25;23.40;99.90
13436;DHT22;6790;49.520;8.504;2023-07-29T11:32:59;23.10;99.90
13436;DHT22;6790;49.520;8.504;2023-07-29T11:35:25;22.80;99.90
13436;DHT22;6790;49.520;8.504;2023-07-29T11:37:54;22.80;99.90
13436;DHT22;6790;49.520;8.504;2023-07-29T11:40:24;22.90;99.90
13436;DHT22;6790;49.520;8.504;2023-07-29T11:42:51;23.10;99.90
13436;DHT22;6790;49.520;8.504;2023-07-29T11:45:19;23.60;99.90
13436;DHT22;6790;49.520;8.504;2023-07-29T11:47:46;23.70;99.90
13436;DHT22;6790;49.520;8.504;2023-07-29T11:50:13;23.60;99.90
13436;DHT22;6790;49.520;8.504;2023-07-29T11:52:46;23.80;99.90
13436;DHT22;6790;49.520;8.504;2023-07-29T11:55:13;24.30;99.90
13436;DHT22;6790;49.520;8.504;2023-07-29T11:57:41;24.10;99.90
13436;DHT22;6790;49.520;8.504;2023-07-29T12:00:09;24.20;99.90
13436;DHT22;6790;49.520;8.504;2023-07-29T12:02:38;24.20;99.90
13436;DHT22;6790;49.520;8.504;2023-07-29T12:05:05;24.00;99.90
13436;DHT22;6790;49.520;8.504;2023-07-29T12:07:32;23.90;99.90
13436;DHT22;6790;49.520;8.504;2023-07-29T12:10:02;24.10;99.90
13436;DHT22;6790;49.520;8.504;2023-07-29T12:12:29;24.50;99.90
13436;DHT22;6790;49.520;8.504;2023-07-29T12:14:54;24.70;99.90
13436;DHT22;6790;49.520;8.504;2023-07-29T12:17:20;24.90;99.90
13436;DHT22;6790;49.520;8.504;2023-07-29T12:19:46;24.90;99.90
13436;DHT22;6790;49.520;8.504;2023-07-29T12:22:12;24.80;99.90
13436;DHT22;6790;49.520;8.504;2023-07-29T12:24:43;24.90;99.90
13436;DHT22;6790;49.520;8.504;2023-07-29T12:27:13;25.10;99.90
13436;DHT22;6790;49.520;8.504;2023-07-29T12:29:41;25.10;99.90
13436;DHT22;6790;49.520;8.504;2023-07-29T12:32:09;24.90;99.90
13436;DHT22;6790;49.520;8.504;2023-07-29T12:34:36;24.90;99.90
13436;DHT22;6790;49.520;8.504;2023-07-29T12:37:04;25.00;99.90
13436;DHT22;6790;49.520;8.504;2023-07-29T12:39:33;25.00;99.90
13436;DHT22;6790;49.520;8.504;2023-07-29T12:42:00;25.30;99.90
13436;DHT22;6790;49.520;8.504;2023-07-29T12:44:33;25.40;99.90
13436;DHT22;6790;49.520;8.504;2023-07-29T12:47:04;24.80;99.90
13436;DHT22;6790;49.520;8.504;2023-07-29T12:49:31;24.50;99.90
13436;DHT22;6790;49.520;8.504;2023-07-29T12:51:58;24.50;99.90
13436;DHT22;6790;49.520;8.504;2023-07-29T12:54:25;24.90;99.90
13436;DHT22;6790;49.520;8.504;2023-07-29T12:56:51;24.90;99.90
13436;DHT22;6790;49.520;8.504;2023-07-29T12:59:17;24.30;99.90
13436;DHT22;6790;49.520;8.504;2023-07-29T13:01:42;24.00;99.90
13436;DHT22;6790;49.520;8.504;2023-07-29T13:04:10;24.00;99.90
13436;DHT22;6790;49.520;8.504;2023-07-29T13:06:35;24.60;99.90
13436;DHT22;6790;49.520;8.504;2023-07-29T13:09:01;24.90;99.90
13436;DHT22;6790;49.520;8.504;2023-07-29T13:11:27;24.70;99.90
13436;DHT22;6790;49.520;8.504;2023-07-29T13:13:52;24.50;99.90
13436;DHT22;6790;49.520;8.504;2023-07-29T13:16:18;24.50;99.90
13436;DHT22;6790;49.520;8.504;2023-07-29T13:18:44;24.40;99.90
13436;DHT22;6790;49.520;8.504;2023-07-29T13:21:10;24.40;99.90
13436;DHT22;6790;49.520;8.504;2023-07-29T13:23:36;24.30;99.90
13436;DHT22;6790;49.520;8.504;2023-07-29T13:26:01;24.30;99.90
13436;DHT22;6790;49.520;8.504;2023-07-29T13:28:27;24.10;99.90
13436;DHT22;6790;49.520;8.504;2023-07-29T13:30:53;23.90;99.90
13436;DHT22;6790;49.520;8.504;2023-07-29T13:33:19;24.10;99.90
13436;DHT22;6790;49.520;8.504;2023-07-29T13:35:44;24.30;99.90
13436;DHT22;6790;49.520;8.504;2023-07-29T13:38:10;24.60;99.90
13436;DHT22;6790;49.520;8.504;2023-07-29T13:40:36;24.90;99.90
13436;DHT22;6790;49.520;8.504;2023-07-29T13:43:02;25.00;99.90
13436;DHT22;6790;49.520;8.504;2023-07-29T13:45:28;25.20;99.90
13436;DHT22;6790;49.520;8.504;2023-07-29T13:47:53;25.30;99.90
13436;DHT22;6790;49.520;8.504;2023-07-29T13:50:19;25.40;99.90
13436;DHT22;6790;49.520;8.504;2023-07-29T13:52:45;25.40;99.90
13436;DHT22;6790;49.520;8.504;2023-07-29T13:55:10;25.50;99.90
13436;DHT22;6790;49.520;8.504;2023-07-29T13:57:37;25.10;99.90
13436;DHT22;6790;49.520;8.504;2023-07-29T14:00:04;24.90;99.90
13436;DHT22;6790;49.520;8.504;2023-07-29T14:02:30;25.10;99.90
13436;DHT22;6790;49.520;8.504;2023-07-29T14:04:56;25.10;99.90
13436;DHT22;6790;49.520;8.504;2023-07-29T14:07:22;25.40;99.90
13436;DHT22;6790;49.520;8.504;2023-07-29T14:09:48;25.60;99.90
13436;DHT22;6790;49.520;8.504;2023-07-29T14:12:13;25.30;99.90
13436;DHT22;6790;49.520;8.504;2023-07-29T14:14:41;25.30;99.90
13436;DHT22;6790;49.520;8.504;2023-07-29T14:19:37;25.20;99.90
13436;DHT22;6790;49.520;8.504;2023-07-29T14:22:03;25.30;99.90
13436;DHT22;6790;49.520;8.504;2023-07-29T14:24:29;25.60;99.90
13436;DHT22;6790;49.520;8.504;2023-07-29T14:26:55;25.90;99.90
13436;DHT22;6790;49.520;8.504;2023-07-29T14:29:20;25.90;99.90
13436;DHT22;6790;49.520;8.504;2023-07-29T14:31:46;25.80;99.90
13436;DHT22;6790;49.520;8.504;2023-07-29T14:34:12;25.70;99.90
13436;DHT22;6790;49.520;8.504;2023-07-29T14:36:37;25.30;99.90
13436;DHT22;6790;49.520;8.504;2023-07-29T14:39:03;24.90;99.90
13436;DHT22;6790;49.520;8.504;2023-07-29T14:41:30;24.70;99.90
13436;DHT22;6790;49.520;8.504;2023-07-29T14:43:56;24.50;99.90
13436;DHT22;6790;49.520;8.504;2023-07-29T14:46:22;24.50;99.90
13436;DHT22;6790;49.520;8.504;2023-07-29T14:48:48;24.60;99.90
13436;DHT22;6790;49.520;8.504;2023-07-29T14:51:14;25.10;99.90
13436;DHT22;6790;49.520;8.504;2023-07-29T14:53:40;25.30;99.90
13436;DHT22;6790;49.520;8.504;2023-07-29T14:56:05;25.30;99.90
13436;DHT22;6790;49.520;8.504;2023-07-29T14:58:31;25.30;99.90
13436;DHT22;6790;49.520;8.504;2023-07-29T15:00:57;24.90;99.90
13436;DHT22;6790;49.520;8.504;2023-07-29T15:03:23;24.60;99.90
13436;DHT22;6790;49.520;8.504;2023-07-29T15:05:50;24.50;99.90
13436;DHT22;6790;49.520;8.504;2023-07-29T15:08:16;24.60;99.90
13436;DHT22;6790;49.520;8.504;2023-07-29T15:10:45;24.70;99.90
13436;DHT22;6790;49.520;8.504;2023-07-29T15:13:12;24.70;99.90
13436;DHT22;6790;49.520;8.504;2023-07-29T15:15:41;25.30;99.90
13436;DHT22;6790;49.520;8.504;2023-07-29T15:18:07;25.30;99.90
13436;DHT22;6790;49.520;8.504;2023-07-29T15:20:33;25.50;99.90
13436;DHT22;6790;49.520;8.504;2023-07-29T15:22:59;25.40;99.90
13436;DHT22;6790;49.520;8.504;2023-07-29T15:25:24;25.20;99.90
13436;DHT22;6790;49.520;8.504;2023-07-29T15:27:50;25.20;99.90
13436;DHT22;6790;49.520;8.504;2023-07-29T15:30:16;25.10;99.90
13436;DHT22;6790;49.520;8.504;2023-07-29T15:32:41;25.20;99.90
13436;DHT22;6790;49.520;8.504;2023-07-29T15:35:07;25.00;99.90
13436;DHT22;6790;49.520;8.504;2023-07-29T15:37:33;24.90;99.90
13436;DHT22;6790;49.520;8.504;2023-07-29T15:39:59;24.70;99.90
13436;DHT22;6790;49.520;8.504;2023-07-29T15:42:25;24.50;99.90
13436;DHT22;6790;49.520;8.504;2023-07-29T15:44:51;24.40;99.90
13436;DHT22;6790;49.520;8.504;2023-07-29T15:47:17;24.40;99.90
13436;DHT22;6790;49.520;8.504;2023-07-29T15:49:44;24.70;99.90
13436;DHT22;6790;49.520;8.504;2023-07-29T15:52:10;24.90;99.90